createdAt,value
2019-01-16T00:01:11.739Z,3.40
2019-01-16T00:03:55.878Z,3.40
2019-01-16T00:06:41.962Z,3.40
2019-01-16T00:09:30.273Z,3.50
2019-01-16T00:12:17.914Z,3.60
2019-01-16T00:15:16.402Z,3.50
2019-01-16T00:18:04.817Z,3.40
2019-01-16T00:20:42.503Z,3.40
2019-01-16T00:23:29.113Z,3.60
2019-01-16T00:26:17.345Z,3.70
2019-01-16T00:29:15.481Z,3.60
2019-01-16T00:32:23.137Z,3.40
2019-01-16T00:35:27.764Z,3.50
2019-01-16T00:38:32.208Z,3.60
2019-01-16T00:41:13.780Z,3.60
2019-01-16T00:44:02.028Z,3.40
2019-01-16T00:46:58.570Z,3.50
2019-01-16T00:49:47.881Z,3.50
2019-01-16T00:52:37.192Z,3.50
2019-01-16T00:55:27.934Z,3.70
2019-01-16T00:58:32.546Z,3.60
2019-01-16T01:01:30.931Z,3.70
2019-01-16T01:04:12.109Z,3.80
2019-01-16T01:06:55.013Z,3.80
2019-01-16T01:09:43.000Z,3.70
2019-01-16T01:12:32.289Z,3.90
2019-01-16T01:15:19.497Z,3.90
2019-01-16T01:17:58.597Z,3.90
2019-01-16T01:20:46.918Z,4.10
2019-01-16T01:23:39.006Z,4.10
2019-01-16T01:26:34.467Z,4.10
2019-01-16T01:29:23.782Z,4.20
2019-01-16T01:32:12.231Z,4.10
2019-01-16T01:34:58.833Z,4.10
2019-01-16T01:37:46.735Z,4.00
2019-01-16T01:40:45.178Z,4.10
2019-01-16T01:43:25.710Z,4.20
2019-01-16T01:46:24.050Z,4.10
2019-01-16T01:49:11.867Z,4.00
2019-01-16T01:52:01.172Z,4.00
2019-01-16T01:55:06.118Z,4.00
2019-01-16T01:57:57.892Z,4.00
2019-01-16T02:00:53.231Z,4.20
2019-01-16T02:03:47.254Z,4.20
2019-01-16T02:06:29.142Z,4.20
2019-01-16T02:09:27.654Z,4.10
2019-01-16T02:12:17.007Z,4.00
2019-01-16T02:15:21.686Z,3.90
2019-01-16T02:18:11.025Z,4.00
2019-01-16T02:20:48.114Z,4.00
2019-01-16T02:23:30.718Z,4.00
2019-01-16T02:26:16.201Z,4.00
2019-01-16T02:29:14.413Z,3.90
2019-01-16T02:32:13.302Z,3.90
2019-01-16T02:34:55.990Z,3.90
2019-01-16T02:37:54.210Z,3.90
2019-01-16T02:40:32.498Z,3.70
2019-01-16T02:43:20.131Z,3.60
2019-01-16T02:46:21.525Z,3.60
2019-01-16T02:48:59.916Z,3.40
2019-01-16T02:51:48.090Z,3.50
2019-01-16T02:54:36.386Z,3.30
2019-01-16T02:57:28.017Z,3.20
2019-01-16T03:00:13.075Z,3.30
2019-01-16T03:03:01.058Z,3.20
2019-01-16T03:05:56.167Z,3.30
2019-01-16T03:08:40.108Z,3.20
2019-01-16T03:11:35.487Z,3.40
2019-01-16T03:14:23.744Z,3.40
2019-01-16T03:17:08.903Z,3.30
2019-01-16T03:20:01.237Z,3.20
2019-01-16T03:22:50.522Z,3.10
2019-01-16T03:25:37.091Z,3.10
2019-01-16T03:28:26.452Z,3.20
2019-01-16T03:31:27.902Z,3.20
2019-01-16T03:34:15.997Z,3.10
2019-01-16T03:37:03.858Z,3.10
2019-01-16T03:39:59.254Z,3.10
2019-01-16T03:42:51.566Z,2.90
2019-01-16T03:45:59.330Z,2.80
2019-01-16T03:48:44.054Z,2.80
2019-01-16T03:51:48.743Z,2.90
2019-01-16T03:54:38.064Z,2.90
2019-01-16T03:57:19.157Z,2.70
2019-01-16T04:00:07.561Z,2.70
2019-01-16T04:02:55.769Z,2.60
2019-01-16T04:05:53.889Z,2.70
2019-01-16T04:08:44.882Z,2.60
2019-01-16T04:11:35.426Z,2.60
2019-01-16T04:14:40.251Z,2.50
2019-01-16T04:17:44.926Z,2.50
2019-01-16T04:20:28.137Z,2.50
2019-01-16T04:23:35.539Z,2.60
2019-01-16T04:26:26.741Z,2.70
2019-01-16T04:29:25.265Z,2.70
2019-01-16T04:32:13.536Z,2.50
2019-01-16T04:35:02.855Z,2.50
2019-01-16T04:37:50.670Z,2.50
2019-01-16T04:40:49.030Z,2.60
2019-01-16T04:43:44.079Z,2.30
2019-01-16T04:46:39.605Z,2.50
2019-01-16T04:49:30.498Z,2.50
2019-01-16T04:52:11.469Z,2.50
2019-01-16T04:54:59.429Z,2.40
2019-01-16T04:57:48.757Z,2.60
2019-01-16T05:00:37.853Z,2.70
2019-01-16T05:03:26.160Z,2.60
2019-01-16T05:06:14.083Z,2.50
2019-01-16T05:09:02.189Z,2.60
2019-01-16T05:11:58.319Z,2.60
2019-01-16T05:14:35.820Z,2.60
2019-01-16T05:17:27.923Z,2.60
2019-01-16T05:20:23.271Z,2.50
2019-01-16T05:23:11.139Z,2.60
2019-01-16T05:26:18.734Z,2.80
2019-01-16T05:29:06.706Z,2.90
2019-01-16T05:32:14.246Z,2.90
2019-01-16T05:35:09.648Z,2.90
2019-01-16T05:37:57.531Z,3.00
2019-01-16T05:40:41.248Z,2.80
2019-01-16T05:43:33.305Z,2.80
2019-01-16T05:46:12.797Z,2.80
2019-01-16T05:48:59.289Z,2.80
2019-01-16T05:51:47.618Z,2.70
2019-01-16T05:54:30.452Z,2.70
2019-01-16T05:57:18.347Z,2.40
2019-01-16T06:00:13.749Z,2.30
2019-01-16T06:03:01.750Z,2.10
2019-01-16T06:05:42.321Z,2.00
2019-01-16T06:08:26.470Z,2.10
2019-01-16T06:11:33.901Z,2.10
2019-01-16T06:14:17.292Z,2.10
2019-01-16T06:17:06.622Z,2.20
2019-01-16T06:19:55.911Z,2.30
2019-01-16T06:22:54.061Z,2.20
2019-01-16T06:25:34.398Z,2.30
2019-01-16T06:28:32.456Z,2.30
2019-01-16T06:31:37.199Z,2.20
2019-01-16T06:34:25.214Z,2.30
2019-01-16T06:37:23.502Z,2.30
2019-01-16T06:40:30.939Z,2.30
2019-01-16T06:43:18.838Z,2.10
2019-01-16T06:46:05.552Z,2.10
2019-01-16T06:49:03.947Z,2.10
2019-01-16T06:51:59.057Z,2.00
2019-01-16T06:54:48.352Z,1.90
2019-01-16T06:57:41.682Z,1.90
2019-01-16T07:00:38.081Z,1.90
2019-01-16T07:03:21.874Z,1.80
2019-01-16T07:06:11.165Z,1.80
2019-01-16T07:08:51.296Z,1.60
2019-01-16T07:11:28.579Z,1.60
2019-01-16T07:14:20.746Z,1.50
2019-01-16T07:17:28.417Z,1.60
2019-01-16T07:20:20.862Z,1.60
2019-01-16T07:23:08.930Z,1.50
2019-01-16T07:25:56.810Z,1.60
2019-01-16T07:28:38.545Z,1.90
2019-01-16T07:31:26.797Z,1.60
2019-01-16T07:34:16.115Z,1.90
2019-01-16T07:37:06.454Z,2.10
2019-01-16T07:40:07.813Z,1.90
2019-01-16T07:43:15.395Z,2.00
2019-01-16T07:46:03.343Z,1.90
2019-01-16T07:48:51.282Z,1.60
2019-01-16T07:51:46.610Z,1.60
2019-01-16T07:54:34.592Z,1.60
2019-01-16T07:57:21.446Z,1.60
2019-01-16T08:00:20.014Z,1.30
2019-01-16T08:03:12.317Z,1.30
2019-01-16T08:06:00.377Z,1.50
2019-01-16T08:08:37.131Z,1.50
2019-01-16T08:11:25.346Z,1.80
2019-01-16T08:14:16.069Z,1.70
2019-01-16T08:17:04.123Z,1.60
2019-01-16T08:19:52.164Z,1.80
2019-01-16T08:22:44.644Z,2.10
2019-01-16T08:25:33.011Z,2.60
2019-01-16T08:28:22.359Z,2.60
2019-01-16T08:31:19.600Z,2.40
2019-01-16T08:34:14.888Z,2.40
2019-01-16T08:36:57.585Z,2.30
2019-01-16T08:39:45.690Z,2.80
2019-01-16T08:42:33.897Z,3.50
2019-01-16T08:45:22.449Z,4.20
2019-01-16T08:48:10.550Z,3.90
2019-01-16T08:50:59.849Z,3.80
2019-01-16T08:53:55.257Z,3.50
2019-01-16T08:56:43.391Z,4.50
2019-01-16T08:59:38.718Z,5.00
2019-01-16T09:02:28.038Z,6.00
2019-01-16T09:05:15.983Z,5.40
2019-01-16T09:08:05.294Z,4.90
2019-01-16T09:11:03.719Z,4.50
2019-01-16T09:14:05.365Z,4.50
2019-01-16T09:16:57.474Z,4.80
2019-01-16T09:19:34.863Z,4.30
2019-01-16T09:22:30.223Z,4.30
2019-01-16T09:25:22.321Z,4.80
2019-01-16T09:28:10.141Z,5.30
2019-01-16T09:30:53.796Z,4.80
2019-01-16T09:33:52.366Z,4.60
2019-01-16T09:36:37.463Z,4.60
2019-01-16T09:39:28.055Z,4.20
2019-01-16T09:42:12.081Z,4.10
2019-01-16T09:45:00.225Z,4.00
2019-01-16T09:48:08.071Z,4.20
2019-01-16T09:50:49.734Z,3.90
2019-01-16T09:53:44.847Z,4.30
2019-01-16T09:56:34.141Z,4.40
2019-01-16T09:59:22.057Z,4.60
2019-01-16T10:02:17.534Z,4.60
2019-01-16T10:04:58.541Z,4.70
2019-01-16T10:07:45.784Z,4.90
2019-01-16T10:10:27.661Z,4.90
2019-01-16T10:13:20.922Z,4.70
2019-01-16T10:16:16.503Z,4.90
2019-01-16T10:19:02.938Z,5.10
2019-01-16T10:21:55.473Z,5.10
2019-01-16T10:24:37.289Z,5.10
2019-01-16T10:27:38.215Z,5.50
2019-01-16T10:30:34.365Z,5.40
2019-01-16T10:33:14.512Z,5.80
2019-01-16T10:36:18.886Z,5.90
2019-01-16T10:39:07.001Z,6.00
2019-01-16T10:41:59.322Z,6.10
2019-01-16T10:44:46.846Z,6.10
2019-01-16T10:47:30.702Z,6.30
2019-01-16T10:50:25.185Z,6.40
2019-01-16T10:53:23.345Z,6.60
2019-01-16T10:56:18.671Z,6.90
2019-01-16T10:59:13.373Z,6.80
2019-01-16T11:02:12.034Z,7.20
2019-01-16T11:04:59.939Z,7.70
2019-01-16T11:07:42.161Z,8.70
2019-01-16T11:10:30.657Z,9.10
2019-01-16T11:13:20.550Z,9.10
2019-01-16T11:16:18.953Z,9.50
2019-01-16T11:19:08.126Z,10.80
2019-01-16T11:21:58.637Z,12.10
2019-01-16T11:24:48.405Z,12.50
2019-01-16T11:27:37.712Z,13.10
2019-01-16T11:30:37.612Z,12.90
2019-01-16T11:33:33.002Z,14.00
2019-01-16T11:36:31.622Z,14.50
2019-01-16T11:39:36.370Z,14.10
2019-01-16T11:42:24.456Z,12.90
2019-01-16T11:45:25.930Z,11.70
2019-01-16T11:48:19.505Z,11.20
2019-01-16T11:51:08.841Z,10.80
2019-01-16T11:54:04.237Z,10.20
2019-01-16T11:56:59.571Z,10.00
2019-01-16T11:59:58.193Z,10.10
2019-01-16T12:02:50.395Z,10.10
2019-01-16T12:05:45.844Z,10.30
2019-01-16T12:08:36.313Z,10.50
2019-01-16T12:11:31.665Z,10.20
2019-01-16T12:14:19.909Z,10.00
2019-01-16T12:17:18.287Z,9.00
2019-01-16T12:20:06.289Z,8.90
2019-01-16T12:23:01.418Z,9.10
2019-01-16T12:25:39.857Z,9.00
2019-01-16T12:28:29.181Z,9.10
2019-01-16T12:31:30.754Z,9.10
2019-01-16T12:34:18.635Z,9.20
2019-01-16T12:37:06.946Z,8.70
2019-01-16T12:39:47.931Z,8.80
2019-01-16T12:42:46.377Z,8.90
2019-01-16T12:45:53.892Z,8.70
2019-01-16T12:48:41.642Z,8.60
2019-01-16T12:51:22.429Z,8.40
2019-01-16T12:54:04.618Z,8.70
2019-01-16T12:56:42.573Z,8.60
2019-01-16T12:59:31.413Z,8.40
2019-01-16T13:02:11.562Z,8.30
2019-01-16T13:04:50.765Z,8.20
2019-01-16T13:07:45.880Z,8.00
2019-01-16T13:10:33.769Z,8.00
2019-01-16T13:13:22.013Z,7.90
2019-01-16T13:16:12.257Z,7.70
2019-01-16T13:19:00.344Z,7.70
2019-01-16T13:21:55.551Z,7.30
2019-01-16T13:25:00.230Z,7.10
2019-01-16T13:27:48.155Z,6.80
2019-01-16T13:30:52.587Z,6.90
2019-01-16T13:33:40.735Z,6.90
2019-01-16T13:36:32.827Z,6.90
2019-01-16T13:39:40.570Z,7.00
2019-01-16T13:42:29.849Z,7.00
2019-01-16T13:45:28.275Z,6.70
2019-01-16T13:48:17.628Z,6.60
2019-01-16T13:51:02.193Z,6.70
2019-01-16T13:53:50.121Z,6.60
2019-01-16T13:56:38.370Z,6.50
2019-01-16T13:59:26.198Z,6.50
2019-01-16T14:02:18.386Z,6.40
2019-01-16T14:05:06.385Z,6.40
2019-01-16T14:07:54.917Z,6.50
2019-01-16T14:10:42.841Z,6.60
2019-01-16T14:13:24.108Z,6.60
2019-01-16T14:16:02.900Z,6.60
2019-01-16T14:18:51.534Z,6.50
2019-01-16T14:21:40.826Z,6.50
2019-01-16T14:24:45.126Z,6.30
2019-01-16T14:27:38.944Z,6.30
2019-01-16T14:33:49.314Z,6.30
2019-01-16T14:36:37.571Z,6.10
2019-01-16T14:39:26.521Z,6.20
2019-01-16T14:42:08.406Z,6.10
2019-01-16T14:44:49.634Z,6.10
2019-01-16T14:47:32.301Z,6.10
2019-01-16T14:50:30.958Z,6.20
2019-01-16T14:53:20.279Z,6.10
2019-01-16T14:56:12.448Z,6.20
2019-01-16T14:59:03.943Z,6.30
2019-01-16T15:01:53.357Z,6.10
2019-01-16T15:04:42.670Z,6.20
2019-01-16T15:07:33.581Z,6.10
2019-01-16T15:10:23.372Z,6.10
2019-01-16T15:13:11.225Z,5.90
2019-01-16T15:16:18.988Z,6.10
2019-01-16T15:19:14.098Z,6.00
2019-01-16T15:22:06.216Z,5.90
2019-01-16T15:24:46.142Z,6.00
2019-01-16T15:27:41.411Z,6.00
2019-01-16T15:30:29.878Z,6.00
2019-01-16T15:33:22.239Z,6.00
2019-01-16T15:36:11.549Z,6.10
2019-01-16T15:38:59.714Z,6.20
2019-01-16T15:42:02.255Z,6.00
2019-01-16T15:44:47.370Z,5.90
2019-01-16T15:47:42.721Z,5.70
2019-01-16T15:50:41.378Z,5.70
2019-01-16T15:53:33.810Z,5.60
2019-01-16T15:56:28.938Z,5.60
2019-01-16T15:59:07.543Z,5.60
2019-01-16T16:02:09.286Z,5.60
2019-01-16T16:05:01.437Z,5.60
2019-01-16T16:07:49.121Z,5.60
2019-01-16T16:10:47.656Z,5.40
2019-01-16T16:13:55.374Z,5.40
2019-01-16T16:16:37.337Z,5.20
2019-01-16T16:19:42.013Z,5.10
2019-01-16T16:22:27.068Z,5.30
2019-01-16T16:25:34.730Z,5.40
2019-01-16T16:28:39.531Z,5.30
2019-01-16T16:31:31.993Z,5.30
2019-01-16T16:34:21.321Z,5.50
2019-01-16T16:37:29.369Z,5.50
2019-01-16T16:40:19.929Z,5.30
2019-01-16T16:43:14.035Z,5.10
2019-01-16T16:46:09.238Z,5.10
2019-01-16T16:49:13.718Z,5.00
2019-01-16T16:52:11.957Z,5.20
2019-01-16T16:55:03.063Z,5.20
2019-01-16T16:57:55.486Z,5.30
2019-01-16T17:00:44.707Z,5.20
2019-01-16T17:03:32.855Z,5.10
2019-01-16T17:06:24.993Z,5.00
2019-01-16T17:09:28.826Z,4.90
2019-01-16T17:12:36.362Z,4.90
2019-01-16T17:15:30.473Z,4.90
2019-01-16T17:18:31.801Z,4.90
2019-01-16T17:21:27.189Z,4.90
2019-01-16T17:24:31.569Z,4.90
2019-01-16T17:27:17.325Z,4.90
2019-01-16T17:30:06.668Z,5.00
2019-01-16T17:32:56.379Z,4.90
2019-01-16T17:35:57.801Z,4.90
2019-01-16T17:38:36.955Z,4.90
2019-01-16T17:41:26.506Z,5.00
2019-01-16T17:44:18.600Z,5.10
2019-01-16T17:47:07.993Z,5.10
2019-01-16T17:49:53.034Z,5.10
2019-01-16T17:52:41.238Z,5.10
2019-01-16T17:55:30.557Z,5.00
2019-01-16T17:58:28.826Z,5.00
2019-01-16T18:01:09.593Z,5.00
2019-01-16T18:03:54.041Z,5.00
2019-01-16T18:06:55.454Z,4.90
2019-01-16T18:09:50.573Z,4.90
2019-01-16T18:12:58.358Z,4.80
2019-01-16T18:15:48.387Z,4.70
2019-01-16T18:18:36.662Z,4.70
2019-01-16T18:21:38.003Z,4.70
2019-01-16T18:24:26.113Z,4.70
2019-01-16T18:27:18.459Z,4.70
2019-01-16T18:30:23.186Z,4.70
2019-01-16T18:33:12.557Z,4.70
2019-01-16T18:36:01.910Z,4.70
2019-01-16T18:38:49.086Z,4.70
2019-01-16T18:41:46.230Z,4.70
2019-01-16T18:44:53.967Z,4.70
2019-01-16T18:47:41.085Z,4.70
2019-01-16T18:50:29.514Z,4.80
2019-01-16T18:53:10.622Z,4.90
2019-01-16T18:55:59.250Z,4.90
2019-01-16T18:58:41.139Z,5.00
2019-01-16T19:01:42.593Z,5.00
2019-01-16T19:04:23.483Z,5.10
2019-01-16T19:07:24.725Z,5.10
2019-01-16T19:10:17.104Z,5.10
2019-01-16T19:13:09.190Z,5.00
2019-01-16T19:15:56.122Z,5.00
2019-01-16T19:18:49.697Z,5.00
2019-01-16T19:21:44.068Z,5.00
2019-01-16T19:24:27.117Z,5.10
2019-01-16T19:27:16.424Z,5.00
2019-01-16T19:29:55.317Z,5.10
2019-01-16T19:32:43.523Z,5.10
2019-01-16T19:35:34.574Z,5.00
2019-01-16T19:38:42.306Z,5.00
2019-01-16T19:41:31.634Z,4.90
2019-01-16T19:44:26.962Z,4.80
2019-01-16T19:47:11.226Z,4.90
2019-01-16T19:50:03.341Z,4.90
2019-01-16T19:52:52.678Z,4.80
2019-01-16T19:55:40.761Z,4.90
2019-01-16T19:58:29.098Z,4.90
2019-01-16T20:01:21.873Z,4.90
2019-01-16T20:04:10.362Z,4.90
2019-01-16T20:06:59.710Z,4.90
2019-01-16T20:10:01.362Z,4.90
2019-01-16T20:13:03.152Z,5.00
2019-01-16T20:15:51.422Z,4.90
2019-01-16T20:18:43.552Z,4.90
2019-01-16T20:21:33.187Z,4.80
2019-01-16T20:24:13.864Z,4.80
2019-01-16T20:27:03.183Z,4.80
2019-01-16T20:29:54.135Z,4.90
2019-01-16T20:32:34.588Z,4.90
2019-01-16T20:35:23.128Z,5.00
2019-01-16T20:38:21.513Z,4.90
2019-01-16T20:41:14.115Z,4.90
2019-01-16T20:44:02.454Z,4.90
2019-01-16T20:46:51.821Z,4.80
2019-01-16T20:49:43.968Z,4.70
2019-01-16T20:52:33.296Z,4.60
2019-01-16T20:55:22.805Z,4.50
2019-01-16T20:58:10.941Z,4.50
2019-01-16T21:00:59.223Z,4.50
2019-01-16T21:03:47.405Z,4.50
2019-01-16T21:06:42.843Z,4.50
2019-01-16T21:09:32.929Z,4.40
2019-01-16T21:12:18.621Z,4.30
2019-01-16T21:14:59.758Z,4.20
2019-01-16T21:17:58.187Z,4.10
2019-01-16T21:20:47.583Z,4.10
2019-01-16T21:23:35.975Z,4.20
2019-01-16T21:26:43.443Z,4.10
2019-01-16T21:29:35.586Z,4.10
2019-01-16T21:32:21.245Z,4.10
2019-01-16T21:35:03.235Z,4.20
2019-01-16T21:37:51.510Z,4.20
2019-01-16T21:40:39.508Z,4.30
2019-01-16T21:43:28.873Z,4.40
2019-01-16T21:46:24.374Z,4.50
2019-01-16T21:49:12.494Z,4.50
2019-01-16T21:52:05.117Z,4.50
2019-01-16T21:54:49.341Z,4.50
2019-01-16T21:57:37.576Z,4.60
2019-01-16T22:00:29.901Z,4.70
2019-01-16T22:03:19.252Z,4.80
2019-01-16T22:06:14.639Z,4.90
2019-01-16T22:09:15.308Z,4.90
2019-01-16T22:12:02.954Z,4.90
2019-01-16T22:14:50.887Z,4.90
2019-01-16T22:17:39.471Z,4.90
2019-01-16T22:20:29.291Z,4.90
2019-01-16T22:23:28.320Z,4.90
2019-01-16T22:26:16.757Z,4.90
2019-01-16T22:28:55.702Z,4.90
2019-01-16T22:31:43.989Z,4.80
2019-01-16T22:34:32.381Z,4.70
2019-01-16T22:37:37.178Z,4.50
2019-01-16T22:40:17.131Z,4.40
2019-01-16T22:43:19.182Z,4.40
2019-01-16T22:46:17.264Z,4.50
2019-01-16T22:49:05.277Z,4.50
2019-01-16T22:51:57.909Z,4.50
2019-01-16T22:54:47.202Z,4.60
2019-01-16T22:57:48.739Z,4.70
2019-01-16T23:00:58.622Z,4.60
2019-01-16T23:03:49.953Z,4.50
2019-01-16T23:06:34.442Z,4.60
2019-01-16T23:09:40.711Z,4.60
2019-01-16T23:12:35.937Z,4.50
2019-01-16T23:15:28.415Z,4.50
2019-01-16T23:18:16.519Z,4.40
2019-01-16T23:21:11.732Z,4.40
2019-01-16T23:24:01.063Z,4.40
2019-01-16T23:26:41.627Z,4.50
2019-01-16T23:29:50.273Z,4.50
2019-01-16T23:32:36.462Z,4.60
2019-01-16T23:35:24.687Z,4.60
2019-01-16T23:38:12.734Z,4.50
2019-01-16T23:41:02.109Z,4.60
2019-01-16T23:43:51.506Z,4.40
2019-01-16T23:46:53.067Z,4.50
2019-01-16T23:49:45.331Z,4.60
2019-01-16T23:52:21.568Z,4.50
2019-01-16T23:55:13.730Z,4.50
2019-01-16T23:57:58.143Z,4.40
